Terminal Aerodrome Forecast
Issued by NWS Tampa Bay Area, FL

Home | Current Version | Previous Version | Text Only | Print | Product List | Glossary On
Versions: 1 2 3 4 5 6 7 8 9 10 11 12 13 14 15 16 17 18 19 20 21 22 23 24 25 26 27 28 29 30 31 32 33 34
000
FTUS42 KTBW 280522
TAFTPA
TAF
KTPA 280522Z 2806/2906 22011KT P6SM VCSH SCT012 BKN030
      TEMPO 2806/2810 4SM SHRA BKN012
     FM281000 22007KT P6SM VCSH SCT020 BKN100
      TEMPO 2810/2814 4SM SHRA BKN020
     FM281400 24012KT 6SM SHRA SCT020 BKN035
      TEMPO 2814/2818 3SM +SHRA BKN020
     FM281900 25012KT P6SM VCTS SCT035CB BKN080=

USA.gov is the U.S. government's official web portal to all federal, state and local government web resources and services.